sensor_id;sensor_type;location;lat;lon;timestamp;pressure;altitude;pressure_sealevel;temperature;humidity
81224;BME280;70698;44.402;18.522;2023-12-22T00:02:01;95553.84;;;10.94;49.26
81224;BME280;70698;44.402;18.522;2023-12-22T00:04:26;95545.22;;;10.87;49.81
81224;BME280;70698;44.402;18.522;2023-12-22T00:06:52;95539.63;;;10.83;49.63
81224;BME280;70698;44.402;18.522;2023-12-22T00:09:18;95544.75;;;10.78;49.62
81224;BME280;70698;44.402;18.522;2023-12-22T00:11:44;95538.97;;;10.88;49.20
81224;BME280;70698;44.402;18.522;2023-12-22T00:14:09;95529.84;;;10.90;48.92
81224;BME280;70698;44.402;18.522;2023-12-22T00:16:37;95526.41;;;10.90;49.26
81224;BME280;70698;44.402;18.522;2023-12-22T00:19:03;95515.75;;;10.85;49.15
81224;BME280;70698;44.402;18.522;2023-12-22T00:21:29;95488.34;;;10.81;49.23
81224;BME280;70698;44.402;18.522;2023-12-22T00:23:54;95487.28;;;10.82;49.57
81224;BME280;70698;44.402;18.522;2023-12-22T00:26:20;95526.00;;;10.74;49.22
81224;BME280;70698;44.402;18.522;2023-12-22T00:28:46;95505.81;;;10.87;49.56
81224;BME280;70698;44.402;18.522;2023-12-22T00:31:11;95492.25;;;10.90;49.27
81224;BME280;70698;44.402;18.522;2023-12-22T00:33:40;95483.34;;;10.91;49.43
81224;BME280;70698;44.402;18.522;2023-12-22T00:36:06;95481.13;;;10.88;49.78
81224;BME280;70698;44.402;18.522;2023-12-22T00:38:33;95487.78;;;10.90;49.64
81224;BME280;70698;44.402;18.522;2023-12-22T00:40:59;95468.81;;;10.88;49.78
81224;BME280;70698;44.402;18.522;2023-12-22T00:43:24;95488.34;;;10.81;50.33
81224;BME280;70698;44.402;18.522;2023-12-22T00:45:50;95494.81;;;10.78;50.43
81224;BME280;70698;44.402;18.522;2023-12-22T00:48:16;95500.06;;;10.78;50.76
81224;BME280;70698;44.402;18.522;2023-12-22T00:50:41;95487.03;;;10.71;50.90
81224;BME280;70698;44.402;18.522;2023-12-22T00:53:07;95489.66;;;10.71;51.14
81224;BME280;70698;44.402;18.522;2023-12-22T00:55:32;95497.41;;;10.66;51.61
81224;BME280;70698;44.402;18.522;2023-12-22T00:57:58;95523.66;;;10.66;51.82
81224;BME280;70698;44.402;18.522;2023-12-22T01:00:24;95502.66;;;10.66;51.98
81224;BME280;70698;44.402;18.522;2023-12-22T01:02:49;95486.19;;;10.59;52.55
81224;BME280;70698;44.402;18.522;2023-12-22T01:05:15;95494.22;;;10.64;51.94
81224;BME280;70698;44.402;18.522;2023-12-22T01:07:41;95491.59;;;10.64;51.97
81224;BME280;70698;44.402;18.522;2023-12-22T01:10:07;95512.38;;;10.66;52.10
81224;BME280;70698;44.402;18.522;2023-12-22T01:12:34;95481.38;;;10.56;52.52
81224;BME280;70698;44.402;18.522;2023-12-22T01:15:00;95505.16;;;10.61;52.64
81224;BME280;70698;44.402;18.522;2023-12-22T01:17:25;95503.19;;;10.57;52.97
81224;BME280;70698;44.402;18.522;2023-12-22T01:19:51;95475.41;;;10.49;53.06
81224;BME280;70698;44.402;18.522;2023-12-22T01:22:17;95498.19;;;10.55;52.99
81224;BME280;70698;44.402;18.522;2023-12-22T01:24:43;95494.97;;;10.53;53.13
81224;BME280;70698;44.402;18.522;2023-12-22T01:27:11;95491.09;;;10.56;52.93
81224;BME280;70698;44.402;18.522;2023-12-22T01:29:37;95487.06;;;10.53;53.40
81224;BME280;70698;44.402;18.522;2023-12-22T01:32:03;95506.25;;;10.54;53.60
81224;BME280;70698;44.402;18.522;2023-12-22T01:34:29;95493.34;;;10.52;53.79
81224;BME280;70698;44.402;18.522;2023-12-22T01:36:55;95488.69;;;10.54;53.51
81224;BME280;70698;44.402;18.522;2023-12-22T01:39:21;95492.19;;;10.48;54.50
81224;BME280;70698;44.402;18.522;2023-12-22T01:41:46;95516.97;;;10.52;53.47
81224;BME280;70698;44.402;18.522;2023-12-22T01:44:12;95508.53;;;10.50;53.73
81224;BME280;70698;44.402;18.522;2023-12-22T01:46:38;95515.19;;;10.34;54.15
81224;BME280;70698;44.402;18.522;2023-12-22T01:49:05;95502.22;;;10.40;53.57
81224;BME280;70698;44.402;18.522;2023-12-22T01:51:32;95533.72;;;10.40;54.06
81224;BME280;70698;44.402;18.522;2023-12-22T01:54:00;95515.91;;;10.42;53.21
81224;BME280;70698;44.402;18.522;2023-12-22T01:56:25;95523.63;;;10.36;53.40
81224;BME280;70698;44.402;18.522;2023-12-22T01:58:53;95518.19;;;10.38;53.32
81224;BME280;70698;44.402;18.522;2023-12-22T02:01:22;95498.09;;;10.44;52.69
81224;BME280;70698;44.402;18.522;2023-12-22T02:03:49;95501.34;;;10.46;52.60
81224;BME280;70698;44.402;18.522;2023-12-22T02:06:18;95499.63;;;10.51;51.56
81224;BME280;70698;44.402;18.522;2023-12-22T02:08:47;95502.69;;;10.48;52.31
81224;BME280;70698;44.402;18.522;2023-12-22T02:11:14;95497.31;;;10.43;53.05
81224;BME280;70698;44.402;18.522;2023-12-22T02:13:40;95515.25;;;10.46;52.88
81224;BME280;70698;44.402;18.522;2023-12-22T02:16:13;95519.84;;;10.51;52.88
81224;BME280;70698;44.402;18.522;2023-12-22T02:18:43;95507.22;;;10.41;53.31
81224;BME280;70698;44.402;18.522;2023-12-22T02:21:10;95511.69;;;10.41;53.64
81224;BME280;70698;44.402;18.522;2023-12-22T02:23:36;95492.94;;;10.37;53.65
81224;BME280;70698;44.402;18.522;2023-12-22T02:26:12;95514.47;;;10.46;53.38
81224;BME280;70698;44.402;18.522;2023-12-22T02:28:40;95522.97;;;10.41;53.86
81224;BME280;70698;44.402;18.522;2023-12-22T02:31:22;95513.06;;;10.43;53.53
81224;BME280;70698;44.402;18.522;2023-12-22T02:33:51;95533.94;;;10.38;54.26
81224;BME280;70698;44.402;18.522;2023-12-22T02:36:20;95521.47;;;10.33;53.86
81224;BME280;70698;44.402;18.522;2023-12-22T02:38:46;95540.94;;;10.44;53.31
81224;BME280;70698;44.402;18.522;2023-12-22T02:41:13;95540.00;;;10.39;53.36
81224;BME280;70698;44.402;18.522;2023-12-22T02:43:39;95539.91;;;10.45;52.89
81224;BME280;70698;44.402;18.522;2023-12-22T02:46:13;95550.19;;;10.47;52.58
81224;BME280;70698;44.402;18.522;2023-12-22T02:48:38;95553.25;;;10.44;52.20
81224;BME280;70698;44.402;18.522;2023-12-22T02:51:04;95567.91;;;10.51;52.62
81224;BME280;70698;44.402;18.522;2023-12-22T02:53:30;95565.94;;;10.47;52.33
81224;BME280;70698;44.402;18.522;2023-12-22T02:55:55;95553.72;;;10.41;52.46
81224;BME280;70698;44.402;18.522;2023-12-22T02:58:21;95573.25;;;10.45;52.90
81224;BME280;70698;44.402;18.522;2023-12-22T03:00:47;95567.56;;;10.48;51.93
81224;BME280;70698;44.402;18.522;2023-12-22T03:03:12;95573.03;;;10.64;51.54
81224;BME280;70698;44.402;18.522;2023-12-22T03:05:38;95575.28;;;10.61;52.22
81224;BME280;70698;44.402;18.522;2023-12-22T03:08:04;95578.66;;;10.50;53.48
81224;BME280;70698;44.402;18.522;2023-12-22T03:10:30;95587.75;;;10.47;53.71
81224;BME280;70698;44.402;18.522;2023-12-22T03:12:56;95569.53;;;10.34;54.22
81224;BME280;70698;44.402;18.522;2023-12-22T03:15:21;95572.88;;;10.41;54.04
81224;BME280;70698;44.402;18.522;2023-12-22T03:17:47;95550.66;;;10.25;53.68
81224;BME280;70698;44.402;18.522;2023-12-22T03:20:12;95581.28;;;10.50;53.19
81224;BME280;70698;44.402;18.522;2023-12-22T03:22:38;95580.03;;;10.52;53.09
81224;BME280;70698;44.402;18.522;2023-12-22T03:25:04;95575.22;;;10.49;54.13
81224;BME280;70698;44.402;18.522;2023-12-22T03:27:30;95584.91;;;10.49;53.50
81224;BME280;70698;44.402;18.522;2023-12-22T03:29:55;95561.34;;;10.42;53.76
81224;BME280;70698;44.402;18.522;2023-12-22T03:32:21;95581.84;;;10.52;53.21
81224;BME280;70698;44.402;18.522;2023-12-22T03:34:46;95588.72;;;10.53;53.42
81224;BME280;70698;44.402;18.522;2023-12-22T03:37:12;95576.59;;;10.52;52.73
81224;BME280;70698;44.402;18.522;2023-12-22T03:39:38;95588.63;;;10.59;52.61
81224;BME280;70698;44.402;18.522;2023-12-22T03:42:03;95587.63;;;10.60;52.34
81224;BME280;70698;44.402;18.522;2023-12-22T03:44:29;95584.41;;;10.58;52.62
81224;BME280;70698;44.402;18.522;2023-12-22T03:46:55;95572.59;;;10.49;53.15
81224;BME280;70698;44.402;18.522;2023-12-22T03:49:21;95586.44;;;10.56;53.04
81224;BME280;70698;44.402;18.522;2023-12-22T03:51:47;95593.97;;;10.53;53.50
81224;BME280;70698;44.402;18.522;2023-12-22T03:54:12;95570.19;;;10.48;54.05
81224;BME280;70698;44.402;18.522;2023-12-22T03:56:40;95593.97;;;10.53;53.87
81224;BME280;70698;44.402;18.522;2023-12-22T03:59:06;95589.00;;;10.45;53.89
81224;BME280;70698;44.402;18.522;2023-12-22T04:01:31;95609.38;;;10.49;53.46
81224;BME280;70698;44.402;18.522;2023-12-22T04:03:57;95603.91;;;10.51;53.52
81224;BME280;70698;44.402;18.522;2023-12-22T04:06:23;95602.19;;;10.56;53.11
81224;BME280;70698;44.402;18.522;2023-12-22T04:08:48;95585.50;;;10.51;53.41
81224;BME280;70698;44.402;18.522;2023-12-22T04:11:14;95593.16;;;10.52;53.41
81224;BME280;70698;44.402;18.522;2023-12-22T04:13:39;95596.72;;;10.58;53.23
81224;BME280;70698;44.402;18.522;2023-12-22T04:16:05;95601.31;;;10.62;53.06
81224;BME280;70698;44.402;18.522;2023-12-22T04:18:31;95606.56;;;10.62;52.98
81224;BME280;70698;44.402;18.522;2023-12-22T04:20:57;95608.63;;;10.60;53.30
81224;BME280;70698;44.402;18.522;2023-12-22T04:23:23;95608.63;;;10.60;53.59
81224;BME280;70698;44.402;18.522;2023-12-22T04:25:48;95613.09;;;10.60;53.55
81224;BME280;70698;44.402;18.522;2023-12-22T04:28:14;95612.28;;;10.59;53.94
81224;BME280;70698;44.402;18.522;2023-12-22T04:30:40;95606.22;;;10.59;53.56
81224;BME280;70698;44.402;18.522;2023-12-22T04:33:05;95603.53;;;10.65;52.98
81224;BME280;70698;44.402;18.522;2023-12-22T04:35:31;95614.59;;;10.67;53.12
81224;BME280;70698;44.402;18.522;2023-12-22T04:37:57;95632.19;;;10.67;53.99
81224;BME280;70698;44.402;18.522;2023-12-22T04:40:22;95635.13;;;10.59;55.28
81224;BME280;70698;44.402;18.522;2023-12-22T04:42:48;95639.78;;;10.57;54.76
81224;BME280;70698;44.402;18.522;2023-12-22T04:45:14;95639.06;;;10.50;55.86
81224;BME280;70698;44.402;18.522;2023-12-22T04:47:40;95630.66;;;10.41;56.44
81224;BME280;70698;44.402;18.522;2023-12-22T04:50:06;95644.53;;;10.48;57.20
81224;BME280;70698;44.402;18.522;2023-12-22T04:52:31;95628.75;;;10.30;59.22
81224;BME280;70698;44.402;18.522;2023-12-22T04:54:57;95643.91;;;10.28;59.43
81224;BME280;70698;44.402;18.522;2023-12-22T04:57:23;95642.59;;;10.19;59.14
81224;BME280;70698;44.402;18.522;2023-12-22T04:59:48;95627.34;;;10.03;60.72
81224;BME280;70698;44.402;18.522;2023-12-22T05:02:14;95660.41;;;10.10;61.23
81224;BME280;70698;44.402;18.522;2023-12-22T05:04:39;95658.19;;;10.07;60.43
81224;BME280;70698;44.402;18.522;2023-12-22T05:07:05;95648.16;;;10.04;59.72
81224;BME280;70698;44.402;18.522;2023-12-22T05:09:33;95658.19;;;10.07;59.90
81224;BME280;70698;44.402;18.522;2023-12-22T05:11:59;95663.69;;;10.06;60.62
81224;BME280;70698;44.402;18.522;2023-12-22T05:14:25;95665.34;;;10.00;60.19
81224;BME280;70698;44.402;18.522;2023-12-22T05:16:50;95661.75;;;9.94;59.80
81224;BME280;70698;44.402;18.522;2023-12-22T05:19:20;95664.59;;;9.93;60.27
81224;BME280;70698;44.402;18.522;2023-12-22T05:21:46;95648.25;;;9.91;60.69
81224;BME280;70698;44.402;18.522;2023-12-22T05:24:11;95654.84;;;10.00;60.61
81224;BME280;70698;44.402;18.522;2023-12-22T05:26:37;95669.47;;;9.89;60.32
81224;BME280;70698;44.402;18.522;2023-12-22T05:29:03;95668.84;;;9.87;60.82
81224;BME280;70698;44.402;18.522;2023-12-22T05:31:28;95678.19;;;9.83;62.15
81224;BME280;70698;44.402;18.522;2023-12-22T05:33:56;95690.00;;;9.68;63.24
81224;BME280;70698;44.402;18.522;2023-12-22T05:36:22;95675.31;;;9.60;63.85
81224;BME280;70698;44.402;18.522;2023-12-22T05:38:47;95674.91;;;9.57;64.21
81224;BME280;70698;44.402;18.522;2023-12-22T05:41:13;95684.03;;;9.54;64.53
81224;BME280;70698;44.402;18.522;2023-12-22T05:43:38;95680.13;;;9.63;63.81
81224;BME280;70698;44.402;18.522;2023-12-22T05:46:04;95678.53;;;9.62;64.43
81224;BME280;70698;44.402;18.522;2023-12-22T05:48:30;95697.56;;;9.51;64.99
81224;BME280;70698;44.402;18.522;2023-12-22T05:50:58;95717.78;;;9.44;66.28
81224;BME280;70698;44.402;18.522;2023-12-22T05:53:24;95720.84;;;9.34;66.77
81224;BME280;70698;44.402;18.522;2023-12-22T05:55:50;95753.38;;;9.20;67.99
81224;BME280;70698;44.402;18.522;2023-12-22T05:58:16;95758.66;;;9.07;69.42
81224;BME280;70698;44.402;18.522;2023-12-22T06:00:41;95766.31;;;9.02;70.10
81224;BME280;70698;44.402;18.522;2023-12-22T06:03:08;95773.84;;;8.79;72.70
81224;BME280;70698;44.402;18.522;2023-12-22T06:05:34;95791.38;;;8.58;76.28
81224;BME280;70698;44.402;18.522;2023-12-22T06:07:59;95802.88;;;8.57;75.74
81224;BME280;70698;44.402;18.522;2023-12-22T06:10:25;95808.09;;;8.38;78.42
81224;BME280;70698;44.402;18.522;2023-12-22T06:12:50;95819.13;;;8.13;80.42
81224;BME280;70698;44.402;18.522;2023-12-22T06:15:16;95835.03;;;8.05;82.10
81224;BME280;70698;44.402;18.522;2023-12-22T06:17:41;95855.84;;;7.66;87.14
81224;BME280;70698;44.402;18.522;2023-12-22T06:20:07;95860.53;;;7.43;92.02
81224;BME280;70698;44.402;18.522;2023-12-22T06:22:33;95881.44;;;7.36;96.66
81224;BME280;70698;44.402;18.522;2023-12-22T06:24:59;95882.38;;;7.22;98.56
81224;BME280;70698;44.402;18.522;2023-12-22T06:27:26;95889.28;;;7.08;96.98
81224;BME280;70698;44.402;18.522;2023-12-22T06:29:51;95889.84;;;7.04;97.22
81224;BME280;70698;44.402;18.522;2023-12-22T06:32:17;95909.34;;;7.01;95.48
81224;BME280;70698;44.402;18.522;2023-12-22T06:34:43;95894.34;;;6.82;98.45
81224;BME280;70698;44.402;18.522;2023-12-22T06:37:08;95909.88;;;6.69;99.88
81224;BME280;70698;44.402;18.522;2023-12-22T06:39:36;95922.56;;;6.72;100.00
81224;BME280;70698;44.402;18.522;2023-12-22T06:42:02;95920.88;;;6.64;100.00
81224;BME280;70698;44.402;18.522;2023-12-22T06:44:28;95932.38;;;6.70;100.00
81224;BME280;70698;44.402;18.522;2023-12-22T06:46:56;95925.78;;;6.74;99.65
81224;BME280;70698;44.402;18.522;2023-12-22T06:49:22;95932.81;;;6.73;100.00
81224;BME280;70698;44.402;18.522;2023-12-22T06:51:48;95937.75;;;6.62;100.00
81224;BME280;70698;44.402;18.522;2023-12-22T06:54:13;95942.09;;;6.55;100.00
81224;BME280;70698;44.402;18.522;2023-12-22T06:56:39;95954.03;;;6.42;100.00
81224;BME280;70698;44.402;18.522;2023-12-22T06:59:05;95966.78;;;6.52;100.00
81224;BME280;70698;44.402;18.522;2023-12-22T07:01:33;95976.16;;;6.46;100.00
81224;BME280;70698;44.402;18.522;2023-12-22T07:04:00;95974.53;;;6.45;100.00
81224;BME280;70698;44.402;18.522;2023-12-22T07:06:27;95970.03;;;6.39;100.00
81224;BME280;70698;44.402;18.522;2023-12-22T07:11:38;95989.03;;;6.33;100.00
81224;BME280;70698;44.402;18.522;2023-12-22T07:14:04;96003.16;;;6.39;100.00
81224;BME280;70698;44.402;18.522;2023-12-22T07:16:29;95992.84;;;6.31;100.00
81224;BME280;70698;44.402;18.522;2023-12-22T07:18:55;96022.34;;;6.31;100.00
81224;BME280;70698;44.402;18.522;2023-12-22T07:21:20;96022.22;;;6.39;100.00
81224;BME280;70698;44.402;18.522;2023-12-22T07:23:46;96020.81;;;6.58;100.00
81224;BME280;70698;44.402;18.522;2023-12-22T07:26:12;96021.13;;;6.48;100.00
81224;BME280;70698;44.402;18.522;2023-12-22T07:28:38;96022.91;;;6.27;100.00
81224;BME280;70698;44.402;18.522;2023-12-22T07:31:04;96016.88;;;6.26;100.00
81224;BME280;70698;44.402;18.522;2023-12-22T07:33:31;96015.78;;;6.21;100.00
81224;BME280;70698;44.402;18.522;2023-12-22T07:35:57;96009.34;;;6.17;100.00
81224;BME280;70698;44.402;18.522;2023-12-22T07:38:23;96016.59;;;6.21;100.00
81224;BME280;70698;44.402;18.522;2023-12-22T07:40:48;96006.47;;;6.12;100.00
81224;BME280;70698;44.402;18.522;2023-12-22T07:43:15;96015.16;;;6.19;100.00
81224;BME280;70698;44.402;18.522;2023-12-22T07:45:41;96002.03;;;6.27;100.00
81224;BME280;70698;44.402;18.522;2023-12-22T07:48:07;95995.19;;;6.26;100.00
81224;BME280;70698;44.402;18.522;2023-12-22T07:50:33;95996.25;;;6.31;100.00
81224;BME280;70698;44.402;18.522;2023-12-22T07:52:59;95985.03;;;6.16;100.00
81224;BME280;70698;44.402;18.522;2023-12-22T07:55:24;95983.16;;;5.81;100.00
81224;BME280;70698;44.402;18.522;2023-12-22T07:57:50;95981.13;;;5.91;100.00
81224;BME280;70698;44.402;18.522;2023-12-22T08:00:19;95971.69;;;5.90;100.00
81224;BME280;70698;44.402;18.522;2023-12-22T08:02:45;95998.66;;;5.97;100.00
81224;BME280;70698;44.402;18.522;2023-12-22T08:05:13;95996.75;;;5.91;100.00
81224;BME280;70698;44.402;18.522;2023-12-22T08:07:39;95999.47;;;5.97;100.00
81224;BME280;70698;44.402;18.522;2023-12-22T08:10:04;95976.88;;;6.04;100.00
81224;BME280;70698;44.402;18.522;2023-12-22T08:12:30;95975.53;;;5.94;100.00
81224;BME280;70698;44.402;18.522;2023-12-22T08:14:58;95986.88;;;6.01;100.00
81224;BME280;70698;44.402;18.522;2023-12-22T08:17:23;95986.69;;;6.02;100.00
81224;BME280;70698;44.402;18.522;2023-12-22T08:19:49;95990.53;;;6.07;100.00
81224;BME280;70698;44.402;18.522;2023-12-22T08:22:15;95996.63;;;6.14;100.00
81224;BME280;70698;44.402;18.522;2023-12-22T08:24:41;95989.34;;;6.09;100.00
81224;BME280;70698;44.402;18.522;2023-12-22T08:27:07;95979.66;;;6.03;100.00
81224;BME280;70698;44.402;18.522;2023-12-22T08:29:33;95987.84;;;6.00;100.00
81224;BME280;70698;44.402;18.522;2023-12-22T08:31:59;95998.53;;;6.05;100.00
81224;BME280;70698;44.402;18.522;2023-12-22T08:34:26;96000.25;;;5.98;100.00
81224;BME280;70698;44.402;18.522;2023-12-22T08:36:52;96021.38;;;6.03;100.00
81224;BME280;70698;44.402;18.522;2023-12-22T08:39:17;96018.25;;;5.93;100.00
81224;BME280;70698;44.402;18.522;2023-12-22T08:41:43;96026.31;;;5.98;100.00
81224;BME280;70698;44.402;18.522;2023-12-22T08:44:10;96015.84;;;5.91;100.00
81224;BME280;70698;44.402;18.522;2023-12-22T08:46:35;96015.47;;;5.94;100.00
81224;BME280;70698;44.402;18.522;2023-12-22T08:49:02;96025.88;;;5.94;100.00
81224;BME280;70698;44.402;18.522;2023-12-22T08:51:28;96039.38;;;5.98;100.00
81224;BME280;70698;44.402;18.522;2023-12-22T08:53:54;96046.47;;;6.04;100.00
81224;BME280;70698;44.402;18.522;2023-12-22T08:56:23;96014.03;;;5.92;100.00
81224;BME280;70698;44.402;18.522;2023-12-22T08:58:53;96053.31;;;6.20;100.00
81224;BME280;70698;44.402;18.522;2023-12-22T09:01:21;96063.56;;;6.21;100.00
81224;BME280;70698;44.402;18.522;2023-12-22T09:03:47;96087.91;;;6.28;100.00
81224;BME280;70698;44.402;18.522;2023-12-22T09:06:17;96095.03;;;6.20;100.00
81224;BME280;70698;44.402;18.522;2023-12-22T09:08:44;96097.03;;;6.32;100.00
81224;BME280;70698;44.402;18.522;2023-12-22T09:11:11;96094.75;;;6.29;100.00
81224;BME280;70698;44.402;18.522;2023-12-22T09:13:37;96093.13;;;6.28;100.00
81224;BME280;70698;44.402;18.522;2023-12-22T09:16:03;96067.59;;;6.09;100.00
81224;BME280;70698;44.402;18.522;2023-12-22T09:18:29;96061.69;;;6.15;100.00
81224;BME280;70698;44.402;18.522;2023-12-22T09:20:55;96070.84;;;6.11;100.00
81224;BME280;70698;44.402;18.522;2023-12-22T09:23:20;96086.13;;;6.14;100.00
81224;BME280;70698;44.402;18.522;2023-12-22T09:25:47;96092.44;;;6.05;100.00
81224;BME280;70698;44.402;18.522;2023-12-22T09:28:13;96099.28;;;5.91;100.00
81224;BME280;70698;44.402;18.522;2023-12-22T09:30:39;96060.91;;;5.62;100.00
81224;BME280;70698;44.402;18.522;2023-12-22T09:33:05;96086.41;;;5.90;100.00
81224;BME280;70698;44.402;18.522;2023-12-22T09:35:30;96083.44;;;5.93;100.00
81224;BME280;70698;44.402;18.522;2023-12-22T09:37:56;96083.00;;;6.04;100.00
81224;BME280;70698;44.402;18.522;2023-12-22T09:40:22;96070.41;;;6.08;100.00
81224;BME280;70698;44.402;18.522;2023-12-22T09:42:48;96064.38;;;6.22;100.00
81224;BME280;70698;44.402;18.522;2023-12-22T09:45:16;96079.09;;;6.29;100.00
81224;BME280;70698;44.402;18.522;2023-12-22T09:47:45;96061.56;;;6.09;100.00
81224;BME280;70698;44.402;18.522;2023-12-22T09:50:11;96051.06;;;6.02;100.00
81224;BME280;70698;44.402;18.522;2023-12-22T09:52:40;96026.59;;;6.03;100.00
81224;BME280;70698;44.402;18.522;2023-12-22T09:55:08;96012.03;;;6.09;100.00
81224;BME280;70698;44.402;18.522;2023-12-22T09:57:34;96010.22;;;5.80;100.00
81224;BME280;70698;44.402;18.522;2023-12-22T10:00:00;95996.38;;;5.64;100.00
81224;BME280;70698;44.402;18.522;2023-12-22T10:02:33;95996.81;;;5.53;100.00
81224;BME280;70698;44.402;18.522;2023-12-22T10:05:00;95975.78;;;5.55;100.00
81224;BME280;70698;44.402;18.522;2023-12-22T10:07:26;95994.69;;;5.57;100.00
81224;BME280;70698;44.402;18.522;2023-12-22T10:09:52;95986.13;;;5.63;100.00
81224;BME280;70698;44.402;18.522;2023-12-22T10:12:20;95988.28;;;5.74;100.00
81224;BME280;70698;44.402;18.522;2023-12-22T10:14:49;96002.78;;;5.77;100.00
81224;BME280;70698;44.402;18.522;2023-12-22T10:17:17;95978.31;;;5.78;100.00
81224;BME280;70698;44.402;18.522;2023-12-22T10:19:43;95990.91;;;5.89;100.00
81224;BME280;70698;44.402;18.522;2023-12-22T10:22:08;95984.88;;;5.88;100.00
81224;BME280;70698;44.402;18.522;2023-12-22T10:24:45;95984.59;;;5.83;100.00
81224;BME280;70698;44.402;18.522;2023-12-22T10:27:17;95968.34;;;5.81;100.00
81224;BME280;70698;44.402;18.522;2023-12-22T10:29:49;95995.25;;;5.96;100.00
81224;BME280;70698;44.402;18.522;2023-12-22T10:32:16;95994.44;;;5.96;100.00
81224;BME280;70698;44.402;18.522;2023-12-22T10:34:42;95987.47;;;6.03;100.00
81224;BME280;70698;44.402;18.522;2023-12-22T10:37:08;95979.13;;;5.93;100.00
81224;BME280;70698;44.402;18.522;2023-12-22T10:39:35;95990.09;;;6.03;100.00
81224;BME280;70698;44.402;18.522;2023-12-22T10:42:02;95983.06;;;6.03;100.00
81224;BME280;70698;44.402;18.522;2023-12-22T10:44:28;95979.41;;;6.13;100.00
81224;BME280;70698;44.402;18.522;2023-12-22T10:46:55;95962.03;;;6.05;100.00
81224;BME280;70698;44.402;18.522;2023-12-22T10:49:22;95959.38;;;6.20;100.00
81224;BME280;70698;44.402;18.522;2023-12-22T10:51:49;95951.22;;;6.08;100.00
81224;BME280;70698;44.402;18.522;2023-12-22T10:54:16;95972.19;;;6.15;100.00
81224;BME280;70698;44.402;18.522;2023-12-22T10:56:42;95960.25;;;6.05;100.00
81224;BME280;70698;44.402;18.522;2023-12-22T10:59:10;95970.75;;;6.12;100.00
81224;BME280;70698;44.402;18.522;2023-12-22T11:01:36;95970.94;;;6.11;100.00
81224;BME280;70698;44.402;18.522;2023-12-22T11:04:07;95979.81;;;6.16;100.00
81224;BME280;70698;44.402;18.522;2023-12-22T11:06:34;95972.56;;;6.12;100.00
81224;BME280;70698;44.402;18.522;2023-12-22T11:09:05;95984.75;;;6.26;100.00
81224;BME280;70698;44.402;18.522;2023-12-22T11:11:36;95980.25;;;6.20;100.00
81224;BME280;70698;44.402;18.522;2023-12-22T11:14:02;95976.41;;;6.16;100.00
81224;BME280;70698;44.402;18.522;2023-12-22T11:16:29;95987.19;;;6.48;94.87
81224;BME280;70698;44.402;18.522;2023-12-22T11:18:55;95973.09;;;6.64;91.58
81224;BME280;70698;44.402;18.522;2023-12-22T11:21:22;95983.47;;;6.79;88.29
81224;BME280;70698;44.402;18.522;2023-12-22T11:23:50;95966.56;;;6.96;87.84
81224;BME280;70698;44.402;18.522;2023-12-22T11:26:22;95976.53;;;7.14;87.96
81224;BME280;70698;44.402;18.522;2023-12-22T11:28:52;95971.16;;;6.94;87.22
81224;BME280;70698;44.402;18.522;2023-12-22T11:31:18;95986.56;;;7.10;83.88
81224;BME280;70698;44.402;18.522;2023-12-22T11:33:48;95972.06;;;7.08;86.47
81224;BME280;70698;44.402;18.522;2023-12-22T11:36:14;95987.88;;;7.21;80.84
81224;BME280;70698;44.402;18.522;2023-12-22T11:38:41;95955.53;;;7.22;83.89
81224;BME280;70698;44.402;18.522;2023-12-22T11:41:10;95943.22;;;7.16;85.87
81224;BME280;70698;44.402;18.522;2023-12-22T11:43:39;95960.06;;;7.13;85.90
81224;BME280;70698;44.402;18.522;2023-12-22T11:46:05;95947.78;;;7.07;84.76
81224;BME280;70698;44.402;18.522;2023-12-22T11:48:31;95952.00;;;7.36;85.39
81224;BME280;70698;44.402;18.522;2023-12-22T11:50:57;95939.19;;;7.48;83.00
81224;BME280;70698;44.402;18.522;2023-12-22T11:53:24;95935.03;;;8.07;80.82
81224;BME280;70698;44.402;18.522;2023-12-22T11:56:04;95927.50;;;9.57;74.93
81224;BME280;70698;44.402;18.522;2023-12-22T11:58:41;95935.25;;;9.97;72.98
81224;BME280;70698;44.402;18.522;2023-12-22T12:01:11;95918.56;;;9.84;70.54
81224;BME280;70698;44.402;18.522;2023-12-22T12:03:42;95912.06;;;9.10;72.90
81224;BME280;70698;44.402;18.522;2023-12-22T12:08:50;95883.63;;;9.26;71.29
81224;BME280;70698;44.402;18.522;2023-12-22T12:11:17;95890.22;;;9.55;70.13
81224;BME280;70698;44.402;18.522;2023-12-22T12:13:45;95898.81;;;9.75;68.95
81224;BME280;70698;44.402;18.522;2023-12-22T12:16:15;95902.53;;;10.06;69.31
81224;BME280;70698;44.402;18.522;2023-12-22T12:18:44;95889.59;;;10.80;67.21
81224;BME280;70698;44.402;18.522;2023-12-22T12:21:11;95891.88;;;11.19;64.34
81224;BME280;70698;44.402;18.522;2023-12-22T12:23:37;95891.97;;;11.49;62.58
81224;BME280;70698;44.402;18.522;2023-12-22T12:26:06;95883.72;;;12.00;60.81
81224;BME280;70698;44.402;18.522;2023-12-22T12:28:32;95880.88;;;12.62;60.45
81224;BME280;70698;44.402;18.522;2023-12-22T12:31:04;95884.34;;;12.85;53.28
81224;BME280;70698;44.402;18.522;2023-12-22T12:33:30;95887.84;;;13.67;52.26
81224;BME280;70698;44.402;18.522;2023-12-22T12:35:59;95908.59;;;13.87;49.02
81224;BME280;70698;44.402;18.522;2023-12-22T12:38:46;95918.81;;;13.72;50.90
81224;BME280;70698;44.402;18.522;2023-12-22T12:41:15;95932.63;;;13.39;48.79
81224;BME280;70698;44.402;18.522;2023-12-22T12:43:42;95924.34;;;13.35;48.42
81224;BME280;70698;44.402;18.522;2023-12-22T12:46:09;95912.13;;;13.00;50.62
81224;BME280;70698;44.402;18.522;2023-12-22T12:48:36;95910.84;;;12.49;51.90
81224;BME280;70698;44.402;18.522;2023-12-22T12:51:05;95909.91;;;11.77;53.67
81224;BME280;70698;44.402;18.522;2023-12-22T12:53:31;95920.63;;;11.14;54.78
81224;BME280;70698;44.402;18.522;2023-12-22T12:56:00;95920.81;;;10.63;57.49